Time;durP1;ratioP1;P1;durP2;ratioP2;P2;SDS_P1;SDS_P2;PMS_P1;PMS_P2;Temp;Humidity;BMP_temperature;BMP_pressure;BME280_temperature;BME280_humidity;BME280_pressure;Samples;Min_cycle;Max_cycle;Signal;HPM_P1;HPM_P2
2021/05/21 00:02:02;;;;;;;;;;;20.00;58.10;;;;;;5027172;28;19964;-55
2021/05/21 00:04:28;;;;;;;;;;;20.10;58.20;;;;;;5042845;28;20289;-54
2021/05/21 00:06:53;;;;;;;;;;;20.10;58.20;;;;;;5039619;28;20031;-54
2021/05/21 00:09:19;;;;;;;;;;;20.00;58.10;;;;;;5029174;28;19984;-57
2021/05/21 00:11:44;;;;;;;;;;;20.10;58.10;;;;;;5043283;28;20524;-53
2021/05/21 00:14:09;;;;;;;;;;;20.00;58.00;;;;;;5038378;28;19932;-53
2021/05/21 00:16:35;;;;;;;;;;;20.00;58.00;;;;;;5024198;28;19917;-55
2021/05/21 00:19:00;;;;;;;;;;;20.00;58.00;;;;;;5028787;28;19924;-54
2021/05/21 00:21:26;;;;;;;;;;;20.10;58.10;;;;;;5043617;28;19917;-57
2021/05/21 00:23:51;;;;;;;;;;;20.00;58.00;;;;;;5044252;28;20653;-59
2021/05/21 00:26:17;;;;;;;;;;;20.00;58.00;;;;;;5043359;28;20355;-58
2021/05/21 00:28:42;;;;;;;;;;;20.00;58.00;;;;;;5044640;28;19917;-54
2021/05/21 00:31:08;;;;;;;;;;;20.00;58.00;;;;;;5043400;28;19923;-58
2021/05/21 00:33:33;;;;;;;;;;;20.00;58.00;;;;;;5042376;28;19962;-55
2021/05/21 00:35:59;;;;;;;;;;;20.00;58.00;;;;;;5044182;28;19951;-55
2021/05/21 00:38:24;;;;;;;;;;;20.00;58.00;;;;;;5042490;28;19921;-57
2021/05/21 00:40:49;;;;;;;;;;;20.00;58.00;;;;;;5023998;28;20535;-56
2021/05/21 00:43:15;;;;;;;;;;;20.00;58.00;;;;;;5022813;28;19923;-53
2021/05/21 00:45:40;;;;;;;;;;;20.00;57.90;;;;;;5023385;28;19917;-55
2021/05/21 00:48:06;;;;;;;;;;;20.00;58.00;;;;;;5038219;28;19971;-54
2021/05/21 00:50:31;;;;;;;;;;;20.00;58.00;;;;;;5042861;28;19924;-52
2021/05/21 00:52:57;;;;;;;;;;;20.00;57.90;;;;;;5030461;28;19921;-55
2021/05/21 00:55:22;;;;;;;;;;;20.00;57.90;;;;;;5022603;28;20447;-54
2021/05/21 00:57:48;;;;;;;;;;;20.00;57.90;;;;;;5023213;28;19921;-53
2021/05/21 01:00:13;;;;;;;;;;;20.00;57.90;;;;;;5036133;28;19921;-56
2021/05/21 01:02:39;;;;;;;;;;;20.00;58.00;;;;;;5043626;28;19924;-53
2021/05/21 01:05:04;;;;;;;;;;;20.00;58.00;;;;;;5041723;28;19955;-55
2021/05/21 01:07:30;;;;;;;;;;;20.00;58.00;;;;;;5043019;28;19921;-53
2021/05/21 01:09:56;;;;;;;;;;;20.00;58.00;;;;;;5043479;28;19921;-53
2021/05/21 01:12:22;;;;;;;;;;;20.00;58.00;;;;;;5043428;28;19927;-57
2021/05/21 01:14:47;;;;;;;;;;;20.00;57.90;;;;;;5042293;28;19925;-54
2021/05/21 01:17:13;;;;;;;;;;;20.00;57.90;;;;;;5011395;28;20385;-55
2021/05/21 01:19:38;;;;;;;;;;;20.00;57.90;;;;;;5022108;28;20006;-57
2021/05/21 01:22:04;;;;;;;;;;;20.00;58.00;;;;;;5005355;28;19921;-52
2021/05/21 01:24:29;;;;;;;;;;;20.00;57.90;;;;;;5023620;28;19929;-53
2021/05/21 01:26:58;;;;;;;;;;;19.90;58.50;;;;;;5043383;28;19920;-58
2021/05/21 01:29:23;;;;;;;;;;;20.00;57.90;;;;;;5043657;28;20296;-55
2021/05/21 01:31:48;;;;;;;;;;;20.00;57.80;;;;;;5042383;28;19925;-55
2021/05/21 01:34:14;;;;;;;;;;;20.00;57.90;;;;;;5043315;28;20335;-55
2021/05/21 01:36:40;;;;;;;;;;;20.00;57.80;;;;;;5042214;28;20356;-52
2021/05/21 01:39:07;;;;;;;;;;;20.00;57.80;;;;;;5042938;28;19927;-57
2021/05/21 01:41:33;;;;;;;;;;;20.00;57.80;;;;;;5042615;28;20262;-57
2021/05/21 01:43:59;;;;;;;;;;;19.90;57.70;;;;;;5042726;28;19917;-54
2021/05/21 01:46:24;;;;;;;;;;;20.00;57.80;;;;;;5024829;28;19927;-58
2021/05/21 01:48:50;;;;;;;;;;;20.00;57.70;;;;;;5032781;28;19925;-58
2021/05/21 01:51:15;;;;;;;;;;;19.90;57.80;;;;;;5041593;28;19917;-57
2021/05/21 01:53:41;;;;;;;;;;;19.90;57.70;;;;;;5041242;28;19920;-59
2021/05/21 01:56:06;;;;;;;;;;;19.90;57.70;;;;;;5041818;28;20369;-58
2021/05/21 01:58:32;;;;;;;;;;;19.90;57.70;;;;;;5042237;28;20164;-55
2021/05/21 02:00:58;;;;;;;;;;;19.90;57.80;;;;;;5023572;28;19971;-59
2021/05/21 02:03:23;;;;;;;;;;;19.90;57.70;;;;;;5024399;28;19921;-54
2021/05/21 02:05:48;;;;;;;;;;;19.90;57.80;;;;;;5042581;28;19975;-57
2021/05/21 02:08:14;;;;;;;;;;;19.90;57.70;;;;;;5041605;28;19924;-57
2021/05/21 02:10:39;;;;;;;;;;;19.90;57.70;;;;;;5023433;28;19920;-56
2021/05/21 02:13:05;;;;;;;;;;;19.90;57.70;;;;;;5040695;28;20527;-57
2021/05/21 02:15:30;;;;;;;;;;;19.90;57.60;;;;;;5036285;28;19927;-54
2021/05/21 02:17:56;;;;;;;;;;;19.90;57.70;;;;;;5021850;28;19921;-53
2021/05/21 02:20:21;;;;;;;;;;;19.90;57.60;;;;;;5021520;28;19917;-58
2021/05/21 02:22:47;;;;;;;;;;;19.90;57.70;;;;;;5040963;28;20401;-54
2021/05/21 02:25:14;;;;;;;;;;;19.90;57.60;;;;;;5023323;28;19923;-55
2021/05/21 02:27:39;;;;;;;;;;;19.90;57.70;;;;;;5042028;28;19962;-54
2021/05/21 02:30:07;;;;;;;;;;;19.90;57.60;;;;;;5036933;28;20061;-56
2021/05/21 02:32:32;;;;;;;;;;;19.90;57.70;;;;;;5021712;28;20184;-57
2021/05/21 02:34:58;;;;;;;;;;;19.90;57.70;;;;;;5035384;28;19971;-56
2021/05/21 02:37:23;;;;;;;;;;;19.90;57.70;;;;;;5033056;28;19925;-55
2021/05/21 02:39:49;;;;;;;;;;;19.90;57.70;;;;;;5021679;28;19921;-57
2021/05/21 02:42:14;;;;;;;;;;;19.90;57.70;;;;;;5033129;28;19917;-56
2021/05/21 02:44:40;;;;;;;;;;;19.90;57.70;;;;;;5040711;28;19928;-53
2021/05/21 02:47:05;;;;;;;;;;;19.90;57.70;;;;;;5040944;28;20365;-55
2021/05/21 02:49:32;;;;;;;;;;;19.90;57.60;;;;;;5036615;28;19917;-56
2021/05/21 02:51:57;;;;;;;;;;;19.90;57.60;;;;;;5032342;28;19928;-59
2021/05/21 02:54:22;;;;;;;;;;;19.90;57.60;;;;;;5038850;22;19933;-53
2021/05/21 02:56:48;;;;;;;;;;;19.90;57.60;;;;;;5038208;28;19925;-55
2021/05/21 02:59:13;;;;;;;;;;;19.90;57.60;;;;;;5038932;28;19916;-54
2021/05/21 03:01:39;;;;;;;;;;;19.80;57.50;;;;;;5028670;28;19924;-53
2021/05/21 03:04:05;;;;;;;;;;;19.90;57.60;;;;;;5031745;28;20524;-50
2021/05/21 03:06:30;;;;;;;;;;;19.80;57.50;;;;;;5029868;28;19924;-51
2021/05/21 03:08:55;;;;;;;;;;;19.90;57.50;;;;;;5030199;28;20373;-50
2021/05/21 03:11:21;;;;;;;;;;;19.90;57.50;;;;;;5037127;28;20010;-55
2021/05/21 03:13:46;;;;;;;;;;;19.80;57.50;;;;;;5031655;28;19927;-54
2021/05/21 03:16:12;;;;;;;;;;;19.80;57.50;;;;;;5018310;28;20007;-53
2021/05/21 03:18:37;;;;;;;;;;;19.80;57.50;;;;;;5010320;28;19941;-53
2021/05/21 03:21:03;;;;;;;;;;;19.80;57.50;;;;;;5029218;28;19948;-58
2021/05/21 03:23:28;;;;;;;;;;;19.80;57.50;;;;;;5028508;28;19928;-53
2021/05/21 03:25:54;;;;;;;;;;;19.80;57.50;;;;;;5028585;28;20044;-53
2021/05/21 03:28:19;;;;;;;;;;;19.80;57.50;;;;;;5024845;28;19924;-53
2021/05/21 03:30:45;;;;;;;;;;;19.80;57.40;;;;;;5025148;28;19924;-53
2021/05/21 03:33:10;;;;;;;;;;;19.80;57.50;;;;;;5034226;28;19920;-53
2021/05/21 03:35:36;;;;;;;;;;;19.80;57.50;;;;;;5007524;28;20140;-52
2021/05/21 03:38:05;;;;;;;;;;;19.80;57.40;;;;;;5034369;28;19970;-51
2021/05/21 03:40:31;;;;;;;;;;;19.80;57.50;;;;;;5024983;28;19928;-51
2021/05/21 03:42:56;;;;;;;;;;;19.80;57.40;;;;;;5003673;28;19975;-50
2021/05/21 03:45:22;;;;;;;;;;;19.80;57.40;;;;;;5025204;28;19921;-53
2021/05/21 03:47:47;;;;;;;;;;;19.80;57.40;;;;;;5005762;28;19921;-52
2021/05/21 03:50:13;;;;;;;;;;;19.80;57.40;;;;;;5013148;28;19917;-55
2021/05/21 03:52:39;;;;;;;;;;;19.80;57.40;;;;;;5031217;28;19933;-52
2021/05/21 03:55:06;;;;;;;;;;;19.80;57.40;;;;;;5027629;28;19925;-54
2021/05/21 03:57:31;;;;;;;;;;;19.80;57.40;;;;;;5022987;28;20019;-53
2021/05/21 03:59:57;;;;;;;;;;;19.80;57.40;;;;;;5018331;28;20397;-52
2021/05/21 04:02:22;;;;;;;;;;;19.80;57.40;;;;;;5031944;28;19921;-52
2021/05/21 04:04:47;;;;;;;;;;;19.80;57.30;;;;;;5025781;28;19929;-50
2021/05/21 04:07:13;;;;;;;;;;;19.80;57.30;;;;;;5034300;28;20409;-52
2021/05/21 04:09:38;;;;;;;;;;;19.80;57.40;;;;;;5037797;28;20048;-51
2021/05/21 04:12:04;;;;;;;;;;;19.80;57.40;;;;;;5024733;28;21961;-53
2021/05/21 04:14:29;;;;;;;;;;;19.80;57.30;;;;;;5007633;28;19917;-53
2021/05/21 04:16:55;;;;;;;;;;;19.80;58.00;;;;;;5024719;28;19917;-48
2021/05/21 04:19:20;;;;;;;;;;;19.80;57.40;;;;;;5020406;28;19921;-52
2021/05/21 04:21:46;;;;;;;;;;;19.80;57.40;;;;;;5033675;28;19921;-52
2021/05/21 04:24:11;;;;;;;;;;;19.80;57.40;;;;;;5035489;28;19924;-52
2021/05/21 04:26:37;;;;;;;;;;;19.70;57.30;;;;;;5021441;28;19917;-55
2021/05/21 04:29:02;;;;;;;;;;;19.70;57.40;;;;;;5008286;28;19917;-51
2021/05/21 04:31:28;;;;;;;;;;;19.70;57.30;;;;;;5028404;28;19987;-50
2021/05/21 04:33:53;;;;;;;;;;;19.70;57.30;;;;;;5033641;28;19929;-50
2021/05/21 04:36:19;;;;;;;;;;;19.80;57.40;;;;;;5033182;28;20070;-51
2021/05/21 04:38:44;;;;;;;;;;;19.70;57.40;;;;;;5037778;28;20353;-52
2021/05/21 04:41:10;;;;;;;;;;;19.70;57.40;;;;;;5041986;28;19920;-54
2021/05/21 04:43:35;;;;;;;;;;;19.80;57.40;;;;;;5039796;28;19974;-54
2021/05/21 04:46:02;;;;;;;;;;;19.80;57.40;;;;;;5035070;28;20092;-54
2021/05/21 04:48:27;;;;;;;;;;;19.80;57.50;;;;;;5029765;28;19918;-56
2021/05/21 04:50:53;;;;;;;;;;;19.70;57.60;;;;;;5023905;28;21448;-57
2021/05/21 04:53:18;;;;;;;;;;;19.70;57.70;;;;;;5014700;28;19927;-51
2021/05/21 04:55:45;;;;;;;;;;;19.70;57.90;;;;;;5034406;28;20579;-55
2021/05/21 04:58:11;;;;;;;;;;;19.70;58.60;;;;;;5016781;28;19943;-55
2021/05/21 05:00:36;;;;;;;;;;;19.70;58.80;;;;;;5034249;28;19917;-55
2021/05/21 05:03:21;;;;;;;;;;;19.70;59.00;;;;;;5040489;28;20053;-54
2021/05/21 05:05:47;;;;;;;;;;;19.70;59.10;;;;;;5040911;28;19917;-55
2021/05/21 05:08:14;;;;;;;;;;;19.70;59.00;;;;;;5030483;28;19923;-52
2021/05/21 05:10:40;;;;;;;;;;;19.70;58.90;;;;;;5012998;28;19944;-51
2021/05/21 05:13:05;;;;;;;;;;;19.70;58.80;;;;;;5037882;28;19925;-51
2021/05/21 05:15:33;;;;;;;;;;;19.70;58.80;;;;;;5033465;28;20464;-57
2021/05/21 05:17:59;;;;;;;;;;;19.70;58.70;;;;;;5036862;28;20362;-56
2021/05/21 05:20:24;;;;;;;;;;;19.70;58.60;;;;;;5036489;28;19921;-53
2021/05/21 05:22:52;;;;;;;;;;;19.70;58.60;;;;;;5039034;28;19923;-54
2021/05/21 05:25:18;;;;;;;;;;;19.70;58.50;;;;;;5032394;28;19975;-57
2021/05/21 05:27:43;;;;;;;;;;;19.70;58.40;;;;;;5033045;28;19921;-52
2021/05/21 05:30:09;;;;;;;;;;;19.70;58.40;;;;;;5035326;28;19924;-55
2021/05/21 05:32:35;;;;;;;;;;;19.70;58.50;;;;;;5004037;28;20314;-51
2021/05/21 05:35:00;;;;;;;;;;;19.70;58.60;;;;;;5029509;28;19919;-53
2021/05/21 05:37:25;;;;;;;;;;;19.70;59.00;;;;;;5033366;28;19924;-53
2021/05/21 05:39:51;;;;;;;;;;;19.70;59.10;;;;;;5024551;28;20536;-51
2021/05/21 05:42:16;;;;;;;;;;;19.70;59.00;;;;;;5034387;28;19913;-52
2021/05/21 05:44:42;;;;;;;;;;;19.70;59.10;;;;;;5027181;28;19913;-48
2021/05/21 05:47:07;;;;;;;;;;;19.70;59.20;;;;;;5030072;28;20398;-52
2021/05/21 05:49:33;;;;;;;;;;;19.70;59.00;;;;;;5039236;28;20165;-54
2021/05/21 05:51:58;;;;;;;;;;;19.70;58.90;;;;;;5031015;28;19921;-51
2021/05/21 05:54:24;;;;;;;;;;;19.80;58.80;;;;;;5025273;28;19932;-53
2021/05/21 05:56:49;;;;;;;;;;;19.80;58.80;;;;;;5019678;28;20476;-51
2021/05/21 05:59:14;;;;;;;;;;;19.80;58.70;;;;;;5032637;28;20068;-54
2021/05/21 06:01:40;;;;;;;;;;;19.80;58.60;;;;;;5030867;28;19913;-52
2021/05/21 06:04:05;;;;;;;;;;;19.80;58.30;;;;;;5021360;28;19914;-48
2021/05/21 06:06:31;;;;;;;;;;;19.80;58.20;;;;;;5030801;28;19917;-53
2021/05/21 06:08:57;;;;;;;;;;;19.80;58.00;;;;;;5035334;28;19913;-52
2021/05/21 06:11:23;;;;;;;;;;;19.80;57.70;;;;;;5004205;28;19917;-54
2021/05/21 06:13:48;;;;;;;;;;;19.80;57.50;;;;;;5031664;28;19970;-52
2021/05/21 06:16:14;;;;;;;;;;;19.80;57.30;;;;;;5029668;28;19913;-54
2021/05/21 06:18:40;;;;;;;;;;;19.90;57.10;;;;;;5038299;28;19913;-54
2021/05/21 06:21:06;;;;;;;;;;;19.90;56.70;;;;;;5023708;28;20000;-54
2021/05/21 06:23:31;;;;;;;;;;;19.90;56.60;;;;;;5035070;28;20031;-53
2021/05/21 06:28:37;;;;;;;;;;;19.90;56.80;;;;;;5007808;28;19913;-52
2021/05/21 06:31:02;;;;;;;;;;;19.90;56.90;;;;;;5036795;28;20325;-54
2021/05/21 06:33:28;;;;;;;;;;;19.90;56.90;;;;;;5019709;28;19924;-56
2021/05/21 06:35:53;;;;;;;;;;;19.90;57.00;;;;;;5036446;28;19919;-52
2021/05/21 06:38:19;;;;;;;;;;;19.90;57.00;;;;;;5030766;28;19917;-54
2021/05/21 06:40:45;;;;;;;;;;;19.90;57.00;;;;;;5028889;28;19939;-54
2021/05/21 06:43:12;;;;;;;;;;;19.90;57.10;;;;;;5023721;28;20336;-52
2021/05/21 06:45:38;;;;;;;;;;;19.90;57.10;;;;;;5035171;28;19920;-51
2021/05/21 06:48:03;;;;;;;;;;;19.90;57.10;;;;;;5030880;28;20417;-54
2021/05/21 06:50:29;;;;;;;;;;;19.90;57.10;;;;;;5040147;28;19928;-51
2021/05/21 06:52:54;;;;;;;;;;;19.90;57.20;;;;;;5037961;28;20654;-51
2021/05/21 06:55:20;;;;;;;;;;;19.90;57.10;;;;;;5030895;28;19921;-53
2021/05/21 06:57:45;;;;;;;;;;;19.90;57.10;;;;;;5019882;28;20369;-54
2021/05/21 07:00:11;;;;;;;;;;;19.90;57.10;;;;;;5030143;28;19924;-51
2021/05/21 07:02:36;;;;;;;;;;;19.90;57.00;;;;;;5023582;28;19913;-51
2021/05/21 07:05:02;;;;;;;;;;;19.90;57.10;;;;;;5010046;28;20218;-54
2021/05/21 07:07:30;;;;;;;;;;;19.90;57.10;;;;;;5031791;28;19975;-54
2021/05/21 07:09:56;;;;;;;;;;;19.80;57.00;;;;;;5015112;28;19913;-56
2021/05/21 07:12:21;;;;;;;;;;;19.80;57.10;;;;;;5036189;28;20421;-54
2021/05/21 07:14:47;;;;;;;;;;;19.90;57.10;;;;;;5028327;28;20131;-53
2021/05/21 07:17:12;;;;;;;;;;;19.90;57.10;;;;;;5041386;28;20009;-56
2021/05/21 07:19:38;;;;;;;;;;;19.90;57.10;;;;;;5025320;28;19922;-55
2021/05/21 07:22:04;;;;;;;;;;;19.90;57.10;;;;;;5037570;28;19913;-54
2021/05/21 07:24:30;;;;;;;;;;;19.80;57.10;;;;;;5031883;28;19917;-51
2021/05/21 07:26:55;;;;;;;;;;;19.90;57.20;;;;;;5036467;28;19970;-53
2021/05/21 07:29:21;;;;;;;;;;;19.90;57.20;;;;;;5029790;28;20032;-53
2021/05/21 07:31:46;;;;;;;;;;;19.90;57.30;;;;;;5036788;28;19948;-56
2021/05/21 07:34:12;;;;;;;;;;;19.80;57.20;;;;;;5034002;28;19917;-56
2021/05/21 07:36:37;;;;;;;;;;;19.90;57.20;;;;;;5033588;28;19920;-54
2021/05/21 07:39:03;;;;;;;;;;;19.80;57.20;;;;;;5028865;28;19914;-54
2021/05/21 07:41:29;;;;;;;;;;;19.90;57.30;;;;;;5032670;28;19920;-53
2021/05/21 07:43:54;;;;;;;;;;;19.90;57.30;;;;;;5010676;28;19917;-52
2021/05/21 07:46:22;;;;;;;;;;;19.90;57.30;;;;;;5029384;28;19936;-53
2021/05/21 07:48:49;;;;;;;;;;;19.90;57.30;;;;;;5030543;28;19920;-55
2021/05/21 07:51:15;;;;;;;;;;;19.90;57.30;;;;;;5027948;28;19924;-53
2021/05/21 07:53:40;;;;;;;;;;;19.90;57.30;;;;;;5025949;28;19917;-51
2021/05/21 07:56:06;;;;;;;;;;;19.90;57.30;;;;;;5027676;28;19999;-52
2021/05/21 07:58:32;;;;;;;;;;;19.90;57.30;;;;;;5029129;28;19913;-51
2021/05/21 08:00:58;;;;;;;;;;;19.90;57.30;;;;;;5012650;28;19917;-51
2021/05/21 08:03:23;;;;;;;;;;;19.90;57.40;;;;;;5023818;28;20421;-53
2021/05/21 08:05:48;;;;;;;;;;;19.90;57.30;;;;;;5014498;28;19913;-51
2021/05/21 08:08:20;;;;;;;;;;;19.90;57.30;;;;;;5030072;28;19917;-53
2021/05/21 08:10:45;;;;;;;;;;;19.90;57.40;;;;;;5030323;28;20494;-50
2021/05/21 08:13:11;;;;;;;;;;;19.90;57.40;;;;;;5032566;28;20023;-54
2021/05/21 08:15:36;;;;;;;;;;;19.90;57.40;;;;;;5032737;28;20379;-53
2021/05/21 08:18:02;;;;;;;;;;;19.90;57.40;;;;;;5036837;28;19924;-52
2021/05/21 08:20:27;;;;;;;;;;;19.80;57.30;;;;;;5023284;28;19999;-52
2021/05/21 08:22:54;;;;;;;;;;;19.80;57.40;;;;;;5025503;28;19936;-52
2021/05/21 08:25:20;;;;;;;;;;;19.80;57.40;;;;;;5031450;28;19941;-51
2021/05/21 08:27:45;;;;;;;;;;;19.80;57.40;;;;;;5030054;28;20554;-53
2021/05/21 08:30:11;;;;;;;;;;;19.80;57.50;;;;;;5030390;28;20528;-53
2021/05/21 08:32:37;;;;;;;;;;;19.80;57.40;;;;;;5021540;28;19921;-51
2021/05/21 08:35:02;;;;;;;;;;;19.80;57.40;;;;;;5033732;28;19913;-53
2021/05/21 08:37:28;;;;;;;;;;;19.80;57.50;;;;;;5032221;28;19921;-53
2021/05/21 08:39:54;;;;;;;;;;;19.80;57.50;;;;;;5032858;28;19917;-47
2021/05/21 08:42:20;;;;;;;;;;;19.80;57.40;;;;;;5030231;28;19924;-53
2021/05/21 08:44:48;;;;;;;;;;;19.80;57.40;;;;;;5018465;28;20547;-53
2021/05/21 08:47:14;;;;;;;;;;;19.80;57.50;;;;;;5041081;28;19972;-54
2021/05/21 08:49:40;;;;;;;;;;;19.80;57.50;;;;;;5035913;28;20552;-51
2021/05/21 08:52:05;;;;;;;;;;;19.80;57.50;;;;;;5014388;28;19917;-50
2021/05/21 08:54:37;;;;;;;;;;;19.80;57.50;;;;;;5026976;28;19924;-53
2021/05/21 08:57:05;;;;;;;;;;;19.80;57.50;;;;;;5041741;23;20629;-58
2021/05/21 08:59:31;;;;;;;;;;;19.80;57.50;;;;;;5043482;28;19913;-55
2021/05/21 09:01:57;;;;;;;;;;;19.80;57.50;;;;;;5028916;28;19920;-57
2021/05/21 09:04:23;;;;;;;;;;;19.80;57.60;;;;;;5028801;28;19917;-57
2021/05/21 09:06:48;;;;;;;;;;;19.80;57.50;;;;;;5027570;28;19992;-57
2021/05/21 09:09:14;;;;;;;;;;;19.80;57.50;;;;;;5037983;28;19936;-56
2021/05/21 09:11:41;;;;;;;;;;;19.80;57.60;;;;;;5034292;28;19921;-57
2021/05/21 09:14:17;;;;;;;;;;;19.80;57.50;;;;;;5031307;28;19917;-57
2021/05/21 09:16:43;;;;;;;;;;;19.80;57.60;;;;;;5033940;28;19916;-56
2021/05/21 09:19:10;;;;;;;;;;;19.80;57.60;;;;;;5028136;28;20449;-57
2021/05/21 09:21:45;;;;;;;;;;;19.80;57.60;;;;;;4997256;28;19913;-58
2021/05/21 09:24:10;;;;;;;;;;;19.80;57.60;;;;;;5035621;28;20301;-57
2021/05/21 09:26:42;;;;;;;;;;;19.80;57.50;;;;;;5038363;28;19913;-58
2021/05/21 09:29:09;;;;;;;;;;;19.80;57.60;;;;;;5005201;28;19955;-56
2021/05/21 09:31:44;;;;;;;;;;;19.80;57.60;;;;;;5030504;28;19936;-57
2021/05/21 09:34:10;;;;;;;;;;;19.80;57.60;;;;;;5027987;28;19931;-53
2021/05/21 09:36:36;;;;;;;;;;;19.80;57.60;;;;;;5031935;28;19913;-56
2021/05/21 09:39:04;;;;;;;;;;;19.80;57.50;;;;;;5042276;28;19943;-53
2021/05/21 09:41:30;;;;;;;;;;;19.80;57.50;;;;;;5029769;28;19912;-58
2021/05/21 09:43:56;;;;;;;;;;;19.80;57.60;;;;;;5034747;28;19913;-58
2021/05/21 09:46:22;;;;;;;;;;;19.80;57.60;;;;;;5036378;28;20387;-55
2021/05/21 09:48:48;;;;;;;;;;;19.80;57.60;;;;;;5036831;28;19920;-57
2021/05/21 09:51:13;;;;;;;;;;;19.80;57.60;;;;;;5026638;28;19920;-54
2021/05/21 09:53:39;;;;;;;;;;;19.80;57.50;;;;;;5027421;28;19925;-56
2021/05/21 09:56:04;;;;;;;;;;;19.80;57.50;;;;;;5012023;28;19927;-56
2021/05/21 09:58:33;;;;;;;;;;;19.80;57.50;;;;;;5007856;28;20000;-58
2021/05/21 10:01:05;;;;;;;;;;;19.80;57.60;;;;;;5032714;28;19913;-56
2021/05/21 10:03:31;;;;;;;;;;;19.80;57.50;;;;;;5036541;28;20121;-58
2021/05/21 10:05:57;;;;;;;;;;;19.80;57.50;;;;;;5029861;28;20066;-58
2021/05/21 10:08:22;;;;;;;;;;;19.80;57.50;;;;;;5011429;28;19921;-58
2021/05/21 10:10:47;;;;;;;;;;;19.70;57.50;;;;;;5024329;28;19944;-58
2021/05/21 10:13:13;;;;;;;;;;;19.80;57.60;;;;;;5023838;28;20360;-56
2021/05/21 10:15:38;;;;;;;;;;;19.80;57.50;;;;;;5017805;28;19920;-55
2021/05/21 10:18:05;;;;;;;;;;;19.80;57.50;;;;;;5039313;28;19913;-58
2021/05/21 10:20:30;;;;;;;;;;;19.80;57.50;;;;;;5028312;28;19974;-55
2021/05/21 10:22:56;;;;;;;;;;;19.80;57.50;;;;;;5005568;28;19913;-55
2021/05/21 10:25:22;;;;;;;;;;;19.80;57.50;;;;;;5011895;28;20426;-56
2021/05/21 10:27:49;;;;;;;;;;;19.80;57.50;;;;;;5022341;28;19913;-56
2021/05/21 10:30:15;;;;;;;;;;;19.80;57.50;;;;;;5008516;28;20449;-59
2021/05/21 10:32:40;;;;;;;;;;;19.80;57.50;;;;;;5015691;28;19920;-56
2021/05/21 10:35:13;;;;;;;;;;;19.80;57.60;;;;;;5040635;28;20547;-57
2021/05/21 10:37:39;;;;;;;;;;;19.80;57.50;;;;;;5036351;28;20303;-58
2021/05/21 10:40:21;;;;;;;;;;;19.80;57.40;;;;;;5025094;28;20290;-57
2021/05/21 10:42:47;;;;;;;;;;;19.80;57.40;;;;;;5038155;28;19913;-58
2021/05/21 10:45:16;;;;;;;;;;;19.90;57.40;;;;;;5018748;28;19921;-56
2021/05/21 10:47:44;;;;;;;;;;;19.80;57.50;;;;;;5035093;28;19917;-58
2021/05/21 10:50:15;;;;;;;;;;;19.90;57.50;;;;;;5007738;28;20047;-56
2021/05/21 10:53:03;;;;;;;;;;;19.80;57.50;;;;;;5028313;28;19925;-57
2021/05/21 10:55:44;;;;;;;;;;;19.80;57.40;;;;;;5032266;28;20251;-58
2021/05/21 10:58:17;;;;;;;;;;;19.80;57.50;;;;;;5032041;28;19998;-57
2021/05/21 11:01:01;;;;;;;;;;;19.90;57.40;;;;;;5036386;28;19921;-56
2021/05/21 11:03:30;;;;;;;;;;;19.90;57.50;;;;;;5014914;28;19913;-58
2021/05/21 11:06:15;;;;;;;;;;;19.80;57.40;;;;;;5023360;28;19972;-56
2021/05/21 11:08:46;;;;;;;;;;;19.80;57.40;;;;;;5025560;28;20679;-57
2021/05/21 11:11:12;;;;;;;;;;;19.80;57.40;;;;;;5036055;28;19913;-55
2021/05/21 11:13:38;;;;;;;;;;;19.80;57.50;;;;;;5032682;28;19924;-56
2021/05/21 11:16:03;;;;;;;;;;;19.80;57.50;;;;;;5036860;28;20301;-56
2021/05/21 11:18:32;;;;;;;;;;;19.80;57.50;;;;;;5026791;28;19990;-53
2021/05/21 11:21:02;;;;;;;;;;;19.80;57.60;;;;;;5029587;28;20444;-57
2021/05/21 11:23:29;;;;;;;;;;;19.80;57.50;;;;;;5026310;28;19916;-57
2021/05/21 11:26:09;;;;;;;;;;;19.80;57.60;;;;;;5041505;28;19912;-53
2021/05/21 11:28:37;;;;;;;;;;;19.80;57.60;;;;;;5031620;28;19913;-57
2021/05/21 11:31:06;;;;;;;;;;;19.80;57.50;;;;;;5025179;28;19914;-58
2021/05/21 11:33:31;;;;;;;;;;;19.80;57.40;;;;;;5029432;28;19921;-58
2021/05/21 11:35:57;;;;;;;;;;;19.80;57.40;;;;;;5008207;28;19914;-58
2021/05/21 11:38:25;;;;;;;;;;;19.80;57.40;;;;;;5007850;28;19916;-58
2021/05/21 11:40:51;;;;;;;;;;;19.80;57.40;;;;;;5030678;28;19913;-57
2021/05/21 11:43:21;;;;;;;;;;;19.80;57.40;;;;;;5041131;28;20332;-56
2021/05/21 11:45:47;;;;;;;;;;;19.80;57.50;;;;;;5017037;28;19948;-58
2021/05/21 11:48:13;;;;;;;;;;;19.80;57.50;;;;;;5029908;28;19917;-58
2021/05/21 11:50:38;;;;;;;;;;;19.80;57.60;;;;;;5033176;28;19945;-57
2021/05/21 11:53:10;;;;;;;;;;;19.80;57.60;;;;;;5023331;28;20087;-58
2021/05/21 11:55:41;;;;;;;;;;;19.80;57.60;;;;;;5026054;28;19917;-57
2021/05/21 11:58:06;;;;;;;;;;;19.80;57.60;;;;;;5025987;28;19913;-57
2021/05/21 12:00:33;;;;;;;;;;;19.80;57.40;;;;;;5030975;28;19924;-57
2021/05/21 12:02:59;;;;;;;;;;;19.80;57.50;;;;;;5035544;28;20302;-55
2021/05/21 12:05:24;;;;;;;;;;;19.80;57.50;;;;;;5026234;28;19914;-57
2021/05/21 12:07:50;;;;;;;;;;;19.80;57.50;;;;;;5011725;28;20337;-58
2021/05/21 12:10:15;;;;;;;;;;;19.80;57.50;;;;;;5014312;28;20304;-58
2021/05/21 12:12:41;;;;;;;;;;;19.80;57.50;;;;;;5027423;28;19921;-58
2021/05/21 12:15:07;;;;;;;;;;;19.80;57.50;;;;;;5012280;28;19959;-58
2021/05/21 12:17:34;;;;;;;;;;;19.80;57.50;;;;;;5043339;28;19920;-56
2021/05/21 12:20:00;;;;;;;;;;;19.80;57.50;;;;;;5031597;28;19917;-58
2021/05/21 12:22:26;;;;;;;;;;;19.80;57.50;;;;;;5034151;28;19967;-58
2021/05/21 12:24:51;;;;;;;;;;;19.80;57.50;;;;;;5037986;28;19916;-58
2021/05/21 12:27:17;;;;;;;;;;;19.80;57.50;;;;;;5032132;28;19920;-58
2021/05/21 12:29:42;;;;;;;;;;;19.80;57.40;;;;;;5014426;28;19944;-56
2021/05/21 12:32:09;;;;;;;;;;;19.80;57.50;;;;;;5014477;28;19932;-59
2021/05/21 12:34:35;;;;;;;;;;;19.80;57.40;;;;;;5018911;28;20156;-58
2021/05/21 12:37:00;;;;;;;;;;;19.80;57.40;;;;;;5037041;28;19913;-57
2021/05/21 12:39:37;;;;;;;;;;;19.90;57.40;;;;;;5030407;28;19917;-58
2021/05/21 12:42:03;;;;;;;;;;;19.90;57.40;;;;;;5034442;28;19959;-58
2021/05/21 12:44:28;;;;;;;;;;;19.90;57.40;;;;;;5039259;28;19916;-58
2021/05/21 12:46:57;;;;;;;;;;;19.80;57.40;;;;;;5011409;28;19913;-55
2021/05/21 12:49:34;;;;;;;;;;;19.80;57.60;;;;;;5028169;28;19948;-57
2021/05/21 12:52:02;;;;;;;;;;;19.80;57.50;;;;;;5029706;28;20535;-58
2021/05/21 12:54:28;;;;;;;;;;;19.80;57.50;;;;;;5031729;28;19919;-57
2021/05/21 12:57:03;;;;;;;;;;;19.80;57.50;;;;;;5016728;28;19932;-59
2021/05/21 12:59:36;;;;;;;;;;;19.80;57.50;;;;;;5022272;28;20391;-56
2021/05/21 13:02:02;;;;;;;;;;;19.80;57.60;;;;;;5031038;28;19962;-57
2021/05/21 13:04:28;;;;;;;;;;;19.80;57.60;;;;;;5043537;28;20618;-56
2021/05/21 13:06:54;;;;;;;;;;;19.80;57.40;;;;;;5032280;28;19952;-57
2021/05/21 13:09:19;;;;;;;;;;;19.80;57.40;;;;;;5033983;28;19923;-57
2021/05/21 13:11:47;;;;;;;;;;;19.80;57.50;;;;;;5037922;28;19920;-53
2021/05/21 13:14:13;;;;;;;;;;;19.80;58.10;;;;;;5030723;28;19923;-55
2021/05/21 13:16:50;;;;;;;;;;;19.80;57.50;;;;;;5039221;28;19920;-57
2021/05/21 13:19:21;;;;;;;;;;;19.80;57.60;;;;;;5026870;28;19996;-58
2021/05/21 13:21:47;;;;;;;;;;;19.80;57.50;;;;;;5026614;28;19913;-58
2021/05/21 13:24:14;;;;;;;;;;;19.80;57.50;;;;;;5039139;28;20341;-58
2021/05/21 13:27:06;;;;;;;;;;;19.80;57.60;;;;;;5030440;28;19917;-58
2021/05/21 13:29:31;;;;;;;;;;;19.80;57.40;;;;;;5037312;28;19913;-58
2021/05/21 13:31:57;;;;;;;;;;;19.80;57.50;;;;;;5023849;28;19944;-58
2021/05/21 13:34:22;;;;;;;;;;;19.80;57.40;;;;;;5030975;28;19921;-56
2021/05/21 13:36:48;;;;;;;;;;;19.80;57.50;;;;;;5028342;28;20338;-56
2021/05/21 13:39:13;;;;;;;;;;;19.80;57.50;;;;;;5041762;28;19920;-56
2021/05/21 13:41:38;;;;;;;;;;;19.80;57.50;;;;;;5033494;28;20482;-56
2021/05/21 13:44:04;;;;;;;;;;;19.80;57.50;;;;;;5015271;28;19917;-55
2021/05/21 13:46:29;;;;;;;;;;;19.80;57.60;;;;;;5009160;28;20425;-56
2021/05/21 13:48:55;;;;;;;;;;;19.90;57.50;;;;;;5035895;28;20336;-56
2021/05/21 13:51:20;;;;;;;;;;;19.80;57.40;;;;;;5015371;28;19913;-57
2021/05/21 13:53:46;;;;;;;;;;;19.80;57.40;;;;;;5028915;28;19975;-55
2021/05/21 13:56:13;;;;;;;;;;;19.80;57.40;;;;;;5032518;28;19952;-55
2021/05/21 13:58:39;;;;;;;;;;;19.80;57.40;;;;;;5029866;28;19917;-58
2021/05/21 14:01:04;;;;;;;;;;;19.90;57.40;;;;;;5023663;28;19920;-56
2021/05/21 14:03:30;;;;;;;;;;;19.80;57.40;;;;;;5033366;28;19917;-58
2021/05/21 14:05:55;;;;;;;;;;;19.80;57.50;;;;;;5038076;28;19939;-58
2021/05/21 14:08:20;;;;;;;;;;;19.80;57.60;;;;;;5028183;28;19916;-58
2021/05/21 14:10:46;;;;;;;;;;;19.80;57.70;;;;;;5032968;28;19923;-58
2021/05/21 14:13:12;;;;;;;;;;;19.80;57.60;;;;;;5022848;28;19971;-58
2021/05/21 14:15:37;;;;;;;;;;;19.80;57.60;;;;;;5028506;28;20367;-58